sensor_id;sensor_type;location;lat;lon;timestamp;temperature;humidity
10278;DHT22;5184;51.376;7.148;2023-05-16T00:01:48;10.80;99.90
10278;DHT22;5184;51.376;7.148;2023-05-16T00:04:16;10.70;99.90
10278;DHT22;5184;51.376;7.148;2023-05-16T00:06:43;10.70;99.90
10278;DHT22;5184;51.376;7.148;2023-05-16T00:09:09;10.70;99.90
10278;DHT22;5184;51.376;7.148;2023-05-16T00:11:36;10.70;99.90
10278;DHT22;5184;51.376;7.148;2023-05-16T00:14:03;10.70;99.90
10278;DHT22;5184;51.376;7.148;2023-05-16T00:16:30;10.60;99.90
10278;DHT22;5184;51.376;7.148;2023-05-16T00:18:57;10.60;99.90
10278;DHT22;5184;51.376;7.148;2023-05-16T00:21:23;10.60;99.90
10278;DHT22;5184;51.376;7.148;2023-05-16T00:23:50;10.60;99.90
10278;DHT22;5184;51.376;7.148;2023-05-16T00:26:17;10.60;99.90
10278;DHT22;5184;51.376;7.148;2023-05-16T00:28:44;10.60;99.90
10278;DHT22;5184;51.376;7.148;2023-05-16T00:31:10;10.60;99.90
10278;DHT22;5184;51.376;7.148;2023-05-16T00:33:37;10.50;99.90
10278;DHT22;5184;51.376;7.148;2023-05-16T00:36:04;10.50;99.90
10278;DHT22;5184;51.376;7.148;2023-05-16T00:38:31;10.50;99.90
10278;DHT22;5184;51.376;7.148;2023-05-16T00:40:58;10.50;99.90
10278;DHT22;5184;51.376;7.148;2023-05-16T00:43:24;10.40;99.90
10278;DHT22;5184;51.376;7.148;2023-05-16T00:45:52;10.30;99.90
10278;DHT22;5184;51.376;7.148;2023-05-16T00:48:19;10.30;99.90
10278;DHT22;5184;51.376;7.148;2023-05-16T00:53:09;10.30;99.90
10278;DHT22;5184;51.376;7.148;2023-05-16T00:55:37;10.20;99.90
10278;DHT22;5184;51.376;7.148;2023-05-16T00:58:04;10.20;99.90
10278;DHT22;5184;51.376;7.148;2023-05-16T01:00:30;10.20;99.90
10278;DHT22;5184;51.376;7.148;2023-05-16T01:02:57;10.20;99.90
10278;DHT22;5184;51.376;7.148;2023-05-16T01:05:24;10.20;99.90
10278;DHT22;5184;51.376;7.148;2023-05-16T01:07:51;10.10;99.90
10278;DHT22;5184;51.376;7.148;2023-05-16T01:10:19;10.10;99.90
10278;DHT22;5184;51.376;7.148;2023-05-16T01:12:55;10.10;99.90
10278;DHT22;5184;51.376;7.148;2023-05-16T01:15:20;10.00;99.90
10278;DHT22;5184;51.376;7.148;2023-05-16T01:18:02;9.90;99.90
10278;DHT22;5184;51.376;7.148;2023-05-16T01:23:11;9.90;99.90
10278;DHT22;5184;51.376;7.148;2023-05-16T01:25:55;9.90;99.90
10278;DHT22;5184;51.376;7.148;2023-05-16T01:28:20;9.80;99.90
10278;DHT22;5184;51.376;7.148;2023-05-16T01:30:49;9.80;99.90
10278;DHT22;5184;51.376;7.148;2023-05-16T01:33:15;9.70;99.90
10278;DHT22;5184;51.376;7.148;2023-05-16T01:35:48;9.70;99.90
10278;DHT22;5184;51.376;7.148;2023-05-16T01:38:17;9.60;99.90
10278;DHT22;5184;51.376;7.148;2023-05-16T01:40:49;9.60;99.90
10278;DHT22;5184;51.376;7.148;2023-05-16T01:43:12;9.60;99.90
10278;DHT22;5184;51.376;7.148;2023-05-16T01:45:39;9.60;99.90
10278;DHT22;5184;51.376;7.148;2023-05-16T01:48:08;9.60;99.90
10278;DHT22;5184;51.376;7.148;2023-05-16T01:50:35;9.50;99.90
10278;DHT22;5184;51.376;7.148;2023-05-16T01:53:06;9.50;99.90
10278;DHT22;5184;51.376;7.148;2023-05-16T01:55:50;9.40;99.90
10278;DHT22;5184;51.376;7.148;2023-05-16T01:58:15;9.30;99.90
10278;DHT22;5184;51.376;7.148;2023-05-16T02:00:42;9.20;99.90
10278;DHT22;5184;51.376;7.148;2023-05-16T02:03:09;9.20;99.90
10278;DHT22;5184;51.376;7.148;2023-05-16T02:05:37;9.10;99.90
10278;DHT22;5184;51.376;7.148;2023-05-16T02:08:04;9.00;99.90
10278;DHT22;5184;51.376;7.148;2023-05-16T02:10:31;9.00;99.90
10278;DHT22;5184;51.376;7.148;2023-05-16T02:12:57;9.10;99.90
10278;DHT22;5184;51.376;7.148;2023-05-16T02:15:25;8.90;99.90
10278;DHT22;5184;51.376;7.148;2023-05-16T02:17:52;8.90;99.90
10278;DHT22;5184;51.376;7.148;2023-05-16T02:20:19;8.80;99.90
10278;DHT22;5184;51.376;7.148;2023-05-16T02:22:47;8.80;99.90
10278;DHT22;5184;51.376;7.148;2023-05-16T02:25:14;8.80;99.90
10278;DHT22;5184;51.376;7.148;2023-05-16T02:27:41;8.70;99.90
10278;DHT22;5184;51.376;7.148;2023-05-16T02:30:09;8.70;99.90
10278;DHT22;5184;51.376;7.148;2023-05-16T02:32:37;8.70;99.90
10278;DHT22;5184;51.376;7.148;2023-05-16T02:35:03;8.60;99.90
10278;DHT22;5184;51.376;7.148;2023-05-16T02:37:29;8.60;99.90
10278;DHT22;5184;51.376;7.148;2023-05-16T02:39:56;8.60;99.90
10278;DHT22;5184;51.376;7.148;2023-05-16T02:42:25;8.60;99.90
10278;DHT22;5184;51.376;7.148;2023-05-16T02:44:51;8.60;99.90
10278;DHT22;5184;51.376;7.148;2023-05-16T02:47:17;8.60;99.90
10278;DHT22;5184;51.376;7.148;2023-05-16T02:49:44;8.60;99.90
10278;DHT22;5184;51.376;7.148;2023-05-16T02:52:10;8.60;99.90
10278;DHT22;5184;51.376;7.148;2023-05-16T02:54:37;8.60;99.90
10278;DHT22;5184;51.376;7.148;2023-05-16T02:57:04;8.60;99.90
10278;DHT22;5184;51.376;7.148;2023-05-16T02:59:31;8.60;99.90
10278;DHT22;5184;51.376;7.148;2023-05-16T03:01:58;8.60;99.90
10278;DHT22;5184;51.376;7.148;2023-05-16T03:04:26;8.60;99.90
10278;DHT22;5184;51.376;7.148;2023-05-16T03:06:53;8.70;99.90
10278;DHT22;5184;51.376;7.148;2023-05-16T03:09:20;8.60;99.90
10278;DHT22;5184;51.376;7.148;2023-05-16T03:11:46;8.70;99.90
10278;DHT22;5184;51.376;7.148;2023-05-16T03:14:13;8.70;99.90
10278;DHT22;5184;51.376;7.148;2023-05-16T03:16:39;8.70;99.90
10278;DHT22;5184;51.376;7.148;2023-05-16T03:19:06;8.70;99.90
10278;DHT22;5184;51.376;7.148;2023-05-16T03:21:33;8.70;99.90
10278;DHT22;5184;51.376;7.148;2023-05-16T03:24:02;8.70;99.90
10278;DHT22;5184;51.376;7.148;2023-05-16T03:26:29;8.70;99.90
10278;DHT22;5184;51.376;7.148;2023-05-16T03:28:56;8.70;99.90
10278;DHT22;5184;51.376;7.148;2023-05-16T03:31:23;8.70;99.90
10278;DHT22;5184;51.376;7.148;2023-05-16T03:33:49;8.70;99.90
10278;DHT22;5184;51.376;7.148;2023-05-16T03:36:16;8.70;99.90
10278;DHT22;5184;51.376;7.148;2023-05-16T03:38:43;8.70;99.90
10278;DHT22;5184;51.376;7.148;2023-05-16T03:41:09;8.70;99.90
10278;DHT22;5184;51.376;7.148;2023-05-16T03:43:37;8.60;99.90
10278;DHT22;5184;51.376;7.148;2023-05-16T03:46:04;8.60;99.90
10278;DHT22;5184;51.376;7.148;2023-05-16T03:48:31;8.60;99.90
10278;DHT22;5184;51.376;7.148;2023-05-16T03:50:59;8.50;99.90
10278;DHT22;5184;51.376;7.148;2023-05-16T03:53:25;8.50;99.90
10278;DHT22;5184;51.376;7.148;2023-05-16T03:55:52;8.60;99.90
10278;DHT22;5184;51.376;7.148;2023-05-16T03:58:18;8.50;99.90
10278;DHT22;5184;51.376;7.148;2023-05-16T04:00:45;8.50;99.90
10278;DHT22;5184;51.376;7.148;2023-05-16T04:03:12;8.40;99.90
10278;DHT22;5184;51.376;7.148;2023-05-16T04:05:39;8.40;94.40
10278;DHT22;5184;51.376;7.148;2023-05-16T04:08:06;8.40;99.90
10278;DHT22;5184;51.376;7.148;2023-05-16T04:10:34;8.30;99.90
10278;DHT22;5184;51.376;7.148;2023-05-16T04:13:01;8.30;99.90
10278;DHT22;5184;51.376;7.148;2023-05-16T04:15:28;8.30;99.90
10278;DHT22;5184;51.376;7.148;2023-05-16T04:17:54;8.30;99.90
10278;DHT22;5184;51.376;7.148;2023-05-16T04:20:21;8.30;99.90
10278;DHT22;5184;51.376;7.148;2023-05-16T04:22:47;8.30;99.90
10278;DHT22;5184;51.376;7.148;2023-05-16T04:25:14;8.20;99.90
10278;DHT22;5184;51.376;7.148;2023-05-16T04:27:41;8.30;99.90
10278;DHT22;5184;51.376;7.148;2023-05-16T04:30:10;8.30;35.20
10278;DHT22;5184;51.376;7.148;2023-05-16T04:32:36;8.20;34.30
10278;DHT22;5184;51.376;7.148;2023-05-16T04:35:03;8.20;10.20
10278;DHT22;5184;51.376;7.148;2023-05-16T04:37:30;8.10;1.00
10278;DHT22;5184;51.376;7.148;2023-05-16T04:39:57;8.10;1.00
10278;DHT22;5184;51.376;7.148;2023-05-16T04:42:24;8.10;1.00
10278;DHT22;5184;51.376;7.148;2023-05-16T04:44:52;8.10;1.00
10278;DHT22;5184;51.376;7.148;2023-05-16T04:47:19;8.10;1.00
10278;DHT22;5184;51.376;7.148;2023-05-16T04:49:46;8.10;1.00
10278;DHT22;5184;51.376;7.148;2023-05-16T04:52:14;8.10;1.00
10278;DHT22;5184;51.376;7.148;2023-05-16T04:54:41;8.10;1.00
10278;DHT22;5184;51.376;7.148;2023-05-16T04:57:08;8.10;1.00
10278;DHT22;5184;51.376;7.148;2023-05-16T04:59:36;8.10;1.00
10278;DHT22;5184;51.376;7.148;2023-05-16T05:02:03;8.10;1.00
10278;DHT22;5184;51.376;7.148;2023-05-16T05:04:30;8.00;1.00
10278;DHT22;5184;51.376;7.148;2023-05-16T05:06:56;8.10;1.00
10278;DHT22;5184;51.376;7.148;2023-05-16T05:09:23;8.10;1.00
10278;DHT22;5184;51.376;7.148;2023-05-16T05:11:50;8.50;1.00
10278;DHT22;5184;51.376;7.148;2023-05-16T05:14:16;8.10;1.00
10278;DHT22;5184;51.376;7.148;2023-05-16T05:16:43;8.10;1.00
10278;DHT22;5184;51.376;7.148;2023-05-16T05:19:10;8.10;1.00
10278;DHT22;5184;51.376;7.148;2023-05-16T05:21:37;8.10;1.00
10278;DHT22;5184;51.376;7.148;2023-05-16T05:24:03;8.10;1.00
10278;DHT22;5184;51.376;7.148;2023-05-16T05:26:30;8.10;1.00
10278;DHT22;5184;51.376;7.148;2023-05-16T05:28:57;8.00;1.00
10278;DHT22;5184;51.376;7.148;2023-05-16T05:31:23;8.00;99.90
10278;DHT22;5184;51.376;7.148;2023-05-16T05:33:50;7.90;1.00
10278;DHT22;5184;51.376;7.148;2023-05-16T05:36:17;8.00;1.00
10278;DHT22;5184;51.376;7.148;2023-05-16T05:38:45;8.00;1.00
10278;DHT22;5184;51.376;7.148;2023-05-16T05:41:12;8.00;1.00
10278;DHT22;5184;51.376;7.148;2023-05-16T05:43:39;8.10;1.00
10278;DHT22;5184;51.376;7.148;2023-05-16T05:46:07;8.10;1.00
10278;DHT22;5184;51.376;7.148;2023-05-16T05:48:34;8.10;1.00
10278;DHT22;5184;51.376;7.148;2023-05-16T05:51:01;8.10;99.90
10278;DHT22;5184;51.376;7.148;2023-05-16T05:53:29;8.10;1.00
10278;DHT22;5184;51.376;7.148;2023-05-16T05:55:55;8.10;1.00
10278;DHT22;5184;51.376;7.148;2023-05-16T05:58:22;8.10;99.90
10278;DHT22;5184;51.376;7.148;2023-05-16T06:00:49;8.10;99.90
10278;DHT22;5184;51.376;7.148;2023-05-16T06:03:15;8.10;99.90
10278;DHT22;5184;51.376;7.148;2023-05-16T06:05:43;8.10;99.90
10278;DHT22;5184;51.376;7.148;2023-05-16T06:08:10;8.10;99.90
10278;DHT22;5184;51.376;7.148;2023-05-16T06:10:37;8.20;1.00
10278;DHT22;5184;51.376;7.148;2023-05-16T06:13:05;7.90;99.90
10278;DHT22;5184;51.376;7.148;2023-05-16T06:15:32;8.40;1.00
10278;DHT22;5184;51.376;7.148;2023-05-16T06:17:59;8.50;1.00
10278;DHT22;5184;51.376;7.148;2023-05-16T06:20:27;8.60;1.00
10278;DHT22;5184;51.376;7.148;2023-05-16T06:22:54;8.80;1.00
10278;DHT22;5184;51.376;7.148;2023-05-16T06:25:21;9.10;1.00
10278;DHT22;5184;51.376;7.148;2023-05-16T06:27:49;9.10;99.90
10278;DHT22;5184;51.376;7.148;2023-05-16T06:30:15;9.10;99.90
10278;DHT22;5184;51.376;7.148;2023-05-16T06:32:42;9.20;1.00
10278;DHT22;5184;51.376;7.148;2023-05-16T06:35:09;9.20;1.00
10278;DHT22;5184;51.376;7.148;2023-05-16T06:37:35;9.20;99.90
10278;DHT22;5184;51.376;7.148;2023-05-16T06:40:02;9.20;1.00
10278;DHT22;5184;51.376;7.148;2023-05-16T06:42:29;9.20;1.00
10278;DHT22;5184;51.376;7.148;2023-05-16T06:44:57;9.30;1.00
10278;DHT22;5184;51.376;7.148;2023-05-16T06:47:24;9.40;99.90
10278;DHT22;5184;51.376;7.148;2023-05-16T06:49:51;9.40;1.00
10278;DHT22;5184;51.376;7.148;2023-05-16T06:52:19;9.30;99.90
10278;DHT22;5184;51.376;7.148;2023-05-16T06:54:46;9.40;1.00
10278;DHT22;5184;51.376;7.148;2023-05-16T06:57:13;9.40;99.90
10278;DHT22;5184;51.376;7.148;2023-05-16T06:59:40;9.40;99.90
10278;DHT22;5184;51.376;7.148;2023-05-16T07:02:07;9.40;99.90
10278;DHT22;5184;51.376;7.148;2023-05-16T07:04:33;9.50;99.90
10278;DHT22;5184;51.376;7.148;2023-05-16T07:07:00;9.50;1.00
10278;DHT22;5184;51.376;7.148;2023-05-16T07:09:26;9.70;1.00
10278;DHT22;5184;51.376;7.148;2023-05-16T07:11:53;9.70;99.90
10278;DHT22;5184;51.376;7.148;2023-05-16T07:14:19;9.70;1.00
10278;DHT22;5184;51.376;7.148;2023-05-16T07:16:46;9.60;1.00
10278;DHT22;5184;51.376;7.148;2023-05-16T07:19:13;9.70;52.60
10278;DHT22;5184;51.376;7.148;2023-05-16T07:21:40;9.70;99.90
10278;DHT22;5184;51.376;7.148;2023-05-16T07:24:07;9.70;1.00
10278;DHT22;5184;51.376;7.148;2023-05-16T07:26:35;9.90;1.00
10278;DHT22;5184;51.376;7.148;2023-05-16T07:29:02;9.90;99.90
10278;DHT22;5184;51.376;7.148;2023-05-16T07:31:29;10.00;99.90
10278;DHT22;5184;51.376;7.148;2023-05-16T07:33:57;10.10;1.00
10278;DHT22;5184;51.376;7.148;2023-05-16T07:36:24;10.30;1.00
10278;DHT22;5184;51.376;7.148;2023-05-16T07:38:51;10.40;1.00
10278;DHT22;5184;51.376;7.148;2023-05-16T07:41:19;10.50;99.90
10278;DHT22;5184;51.376;7.148;2023-05-16T07:43:45;10.50;99.90
10278;DHT22;5184;51.376;7.148;2023-05-16T07:46:12;10.50;1.00
10278;DHT22;5184;51.376;7.148;2023-05-16T07:48:39;10.60;1.00
10278;DHT22;5184;51.376;7.148;2023-05-16T07:51:05;10.70;99.90
10278;DHT22;5184;51.376;7.148;2023-05-16T07:53:32;10.90;1.00
10278;DHT22;5184;51.376;7.148;2023-05-16T07:55:59;10.90;1.00
10278;DHT22;5184;51.376;7.148;2023-05-16T07:58:27;10.90;34.70
10278;DHT22;5184;51.376;7.148;2023-05-16T08:00:54;11.00;46.20
10278;DHT22;5184;51.376;7.148;2023-05-16T08:03:21;11.10;99.90
10278;DHT22;5184;51.376;7.148;2023-05-16T08:05:49;11.10;20.00
10278;DHT22;5184;51.376;7.148;2023-05-16T08:08:15;11.10;12.50
10278;DHT22;5184;51.376;7.148;2023-05-16T08:10:42;11.00;99.90
10278;DHT22;5184;51.376;7.148;2023-05-16T08:13:08;10.90;99.90
10278;DHT22;5184;51.376;7.148;2023-05-16T08:15:35;10.80;1.00
10278;DHT22;5184;51.376;7.148;2023-05-16T08:18:02;10.70;99.00
10278;DHT22;5184;51.376;7.148;2023-05-16T08:20:29;10.70;99.90
10278;DHT22;5184;51.376;7.148;2023-05-16T08:22:56;10.70;1.00
10278;DHT22;5184;51.376;7.148;2023-05-16T08:25:24;10.70;99.90
10278;DHT22;5184;51.376;7.148;2023-05-16T08:27:50;10.70;99.90
10278;DHT22;5184;51.376;7.148;2023-05-16T08:30:17;10.70;1.00
10278;DHT22;5184;51.376;7.148;2023-05-16T08:32:43;10.60;1.00
10278;DHT22;5184;51.376;7.148;2023-05-16T08:35:10;10.60;1.00
10278;DHT22;5184;51.376;7.148;2023-05-16T08:37:37;10.70;1.00
10278;DHT22;5184;51.376;7.148;2023-05-16T08:40:05;11.30;99.90
10278;DHT22;5184;51.376;7.148;2023-05-16T08:42:32;11.30;99.90
10278;DHT22;5184;51.376;7.148;2023-05-16T08:44:59;11.60;1.00
10278;DHT22;5184;51.376;7.148;2023-05-16T08:47:26;11.50;1.00
10278;DHT22;5184;51.376;7.148;2023-05-16T08:49:54;11.40;1.00
10278;DHT22;5184;51.376;7.148;2023-05-16T08:52:21;11.40;1.00
10278;DHT22;5184;51.376;7.148;2023-05-16T08:54:49;11.30;1.00
10278;DHT22;5184;51.376;7.148;2023-05-16T08:57:16;11.30;55.30
10278;DHT22;5184;51.376;7.148;2023-05-16T08:59:43;11.30;1.00
10278;DHT22;5184;51.376;7.148;2023-05-16T09:02:10;11.30;1.00
10278;DHT22;5184;51.376;7.148;2023-05-16T09:04:38;11.40;99.90
10278;DHT22;5184;51.376;7.148;2023-05-16T09:07:04;11.30;99.90
10278;DHT22;5184;51.376;7.148;2023-05-16T09:09:31;11.40;99.90
10278;DHT22;5184;51.376;7.148;2023-05-16T09:11:58;11.50;99.90
10278;DHT22;5184;51.376;7.148;2023-05-16T09:14:24;11.50;1.00
10278;DHT22;5184;51.376;7.148;2023-05-16T09:17:06;11.50;1.00
10278;DHT22;5184;51.376;7.148;2023-05-16T09:19:37;11.50;1.00
10278;DHT22;5184;51.376;7.148;2023-05-16T09:22:04;11.50;1.00
10278;DHT22;5184;51.376;7.148;2023-05-16T09:24:30;11.50;1.00
10278;DHT22;5184;51.376;7.148;2023-05-16T09:26:57;11.40;1.00
10278;DHT22;5184;51.376;7.148;2023-05-16T09:29:23;11.50;83.00
10278;DHT22;5184;51.376;7.148;2023-05-16T09:31:51;11.90;1.00
10278;DHT22;5184;51.376;7.148;2023-05-16T09:34:19;12.00;95.80
10278;DHT22;5184;51.376;7.148;2023-05-16T09:36:45;12.00;94.40
10278;DHT22;5184;51.376;7.148;2023-05-16T09:39:11;12.10;99.90
10278;DHT22;5184;51.376;7.148;2023-05-16T09:41:38;12.30;1.00
10278;DHT22;5184;51.376;7.148;2023-05-16T09:44:05;12.30;99.90
10278;DHT22;5184;51.376;7.148;2023-05-16T09:46:33;12.30;99.90
10278;DHT22;5184;51.376;7.148;2023-05-16T09:49:00;12.60;99.90
10278;DHT22;5184;51.376;7.148;2023-05-16T09:51:27;12.80;99.90
10278;DHT22;5184;51.376;7.148;2023-05-16T09:53:57;13.00;99.90
10278;DHT22;5184;51.376;7.148;2023-05-16T09:56:22;12.90;25.90
10278;DHT22;5184;51.376;7.148;2023-05-16T09:58:50;12.90;22.20
10278;DHT22;5184;51.376;7.148;2023-05-16T10:01:15;12.80;53.00
10278;DHT22;5184;51.376;7.148;2023-05-16T10:03:42;12.80;32.00
10278;DHT22;5184;51.376;7.148;2023-05-16T10:06:08;12.60;99.90
10278;DHT22;5184;51.376;7.148;2023-05-16T10:08:35;12.60;99.90
10278;DHT22;5184;51.376;7.148;2023-05-16T10:11:03;12.50;12.70
10278;DHT22;5184;51.376;7.148;2023-05-16T10:13:30;12.50;11.70
10278;DHT22;5184;51.376;7.148;2023-05-16T10:15:56;12.50;99.90
10278;DHT22;5184;51.376;7.148;2023-05-16T10:18:29;13.10;1.00
10278;DHT22;5184;51.376;7.148;2023-05-16T10:20:56;13.00;1.00
10278;DHT22;5184;51.376;7.148;2023-05-16T10:23:21;13.20;1.00
10278;DHT22;5184;51.376;7.148;2023-05-16T10:25:49;13.20;1.00
10278;DHT22;5184;51.376;7.148;2023-05-16T10:28:16;13.20;1.00
10278;DHT22;5184;51.376;7.148;2023-05-16T10:30:44;13.00;60.90
10278;DHT22;5184;51.376;7.148;2023-05-16T10:33:13;13.00;61.00
10278;DHT22;5184;51.376;7.148;2023-05-16T10:35:40;13.00;1.00
10278;DHT22;5184;51.376;7.148;2023-05-16T10:38:07;13.10;1.00
10278;DHT22;5184;51.376;7.148;2023-05-16T10:40:34;13.20;26.00
10278;DHT22;5184;51.376;7.148;2023-05-16T10:43:02;13.30;6.60
10278;DHT22;5184;51.376;7.148;2023-05-16T10:45:29;13.30;9.10
10278;DHT22;5184;51.376;7.148;2023-05-16T10:47:59;13.70;1.00
10278;DHT22;5184;51.376;7.148;2023-05-16T10:50:34;13.60;1.00
10278;DHT22;5184;51.376;7.148;2023-05-16T10:53:11;13.70;1.00
10278;DHT22;5184;51.376;7.148;2023-05-16T10:55:38;13.50;80.10
10278;DHT22;5184;51.376;7.148;2023-05-16T10:58:05;13.30;66.20
10278;DHT22;5184;51.376;7.148;2023-05-16T11:00:32;13.30;42.30
10278;DHT22;5184;51.376;7.148;2023-05-16T11:03:18;13.40;6.30
10278;DHT22;5184;51.376;7.148;2023-05-16T11:05:36;13.40;6.60
10278;DHT22;5184;51.376;7.148;2023-05-16T11:08:04;13.30;1.00
10278;DHT22;5184;51.376;7.148;2023-05-16T11:10:31;13.30;94.60
10278;DHT22;5184;51.376;7.148;2023-05-16T11:13:02;13.20;92.80
10278;DHT22;5184;51.376;7.148;2023-05-16T11:15:30;13.40;1.00
10278;DHT22;5184;51.376;7.148;2023-05-16T11:18:04;13.40;1.00
10278;DHT22;5184;51.376;7.148;2023-05-16T11:20:30;13.50;1.00
10278;DHT22;5184;51.376;7.148;2023-05-16T11:25:35;13.60;99.90
10278;DHT22;5184;51.376;7.148;2023-05-16T11:28:05;13.50;1.00
10278;DHT22;5184;51.376;7.148;2023-05-16T11:30:32;13.70;1.00
10278;DHT22;5184;51.376;7.148;2023-05-16T11:32:59;13.70;1.00
10278;DHT22;5184;51.376;7.148;2023-05-16T11:35:25;14.00;1.00
10278;DHT22;5184;51.376;7.148;2023-05-16T11:37:52;14.10;1.00
10278;DHT22;5184;51.376;7.148;2023-05-16T11:40:19;14.10;1.00
10278;DHT22;5184;51.376;7.148;2023-05-16T11:42:47;14.10;1.00
10278;DHT22;5184;51.376;7.148;2023-05-16T11:45:16;14.20;1.00
10278;DHT22;5184;51.376;7.148;2023-05-16T11:47:44;14.30;1.00
10278;DHT22;5184;51.376;7.148;2023-05-16T11:50:12;14.30;1.00
10278;DHT22;5184;51.376;7.148;2023-05-16T11:52:38;14.30;1.00
10278;DHT22;5184;51.376;7.148;2023-05-16T11:55:06;14.20;99.90
10278;DHT22;5184;51.376;7.148;2023-05-16T11:57:33;13.80;99.90
10278;DHT22;5184;51.376;7.148;2023-05-16T12:00:03;13.80;99.90
10278;DHT22;5184;51.376;7.148;2023-05-16T12:02:29;13.50;1.00
10278;DHT22;5184;51.376;7.148;2023-05-16T12:04:56;13.20;99.90
10278;DHT22;5184;51.376;7.148;2023-05-16T12:07:28;13.20;99.90
10278;DHT22;5184;51.376;7.148;2023-05-16T12:09:54;13.30;1.00
10278;DHT22;5184;51.376;7.148;2023-05-16T12:12:21;13.50;99.90
10278;DHT22;5184;51.376;7.148;2023-05-16T12:14:48;13.50;53.80
10278;DHT22;5184;51.376;7.148;2023-05-16T12:17:16;13.60;1.00
10278;DHT22;5184;51.376;7.148;2023-05-16T12:19:43;13.60;99.90
10278;DHT22;5184;51.376;7.148;2023-05-16T12:22:15;13.60;1.00
10278;DHT22;5184;51.376;7.148;2023-05-16T12:24:41;13.60;1.00
10278;DHT22;5184;51.376;7.148;2023-05-16T12:27:07;13.70;99.90
10278;DHT22;5184;51.376;7.148;2023-05-16T12:29:34;13.50;99.90
10278;DHT22;5184;51.376;7.148;2023-05-16T12:32:00;13.60;1.00
10278;DHT22;5184;51.376;7.148;2023-05-16T12:34:27;13.80;99.90
10278;DHT22;5184;51.376;7.148;2023-05-16T12:36:54;13.80;99.90
10278;DHT22;5184;51.376;7.148;2023-05-16T12:39:21;14.60;99.90
10278;DHT22;5184;51.376;7.148;2023-05-16T12:41:48;14.60;99.90
10278;DHT22;5184;51.376;7.148;2023-05-16T12:44:15;14.80;99.90
10278;DHT22;5184;51.376;7.148;2023-05-16T12:46:43;14.70;90.90
10278;DHT22;5184;51.376;7.148;2023-05-16T12:49:09;14.10;99.90
10278;DHT22;5184;51.376;7.148;2023-05-16T12:51:36;13.70;99.90
10278;DHT22;5184;51.376;7.148;2023-05-16T12:54:06;13.80;99.90
10278;DHT22;5184;51.376;7.148;2023-05-16T12:56:32;13.80;99.90
10278;DHT22;5184;51.376;7.148;2023-05-16T12:58:59;13.90;99.90
10278;DHT22;5184;51.376;7.148;2023-05-16T13:01:25;13.80;99.90
10278;DHT22;5184;51.376;7.148;2023-05-16T13:03:52;14.10;99.90
10278;DHT22;5184;51.376;7.148;2023-05-16T13:06:19;14.60;99.90
10278;DHT22;5184;51.376;7.148;2023-05-16T13:08:47;14.90;99.90
10278;DHT22;5184;51.376;7.148;2023-05-16T13:11:14;15.00;51.50
10278;DHT22;5184;51.376;7.148;2023-05-16T13:13:41;15.00;57.20
10278;DHT22;5184;51.376;7.148;2023-05-16T13:16:07;15.20;27.90
10278;DHT22;5184;51.376;7.148;2023-05-16T13:18:34;15.10;84.90
10278;DHT22;5184;51.376;7.148;2023-05-16T13:21:01;15.20;99.90
10278;DHT22;5184;51.376;7.148;2023-05-16T13:23:27;15.10;62.60
10278;DHT22;5184;51.376;7.148;2023-05-16T13:25:54;15.30;1.00
10278;DHT22;5184;51.376;7.148;2023-05-16T13:28:22;15.60;34.70
10278;DHT22;5184;51.376;7.148;2023-05-16T13:30:49;15.70;1.00
10278;DHT22;5184;51.376;7.148;2023-05-16T13:33:16;15.70;1.00
10278;DHT22;5184;51.376;7.148;2023-05-16T13:35:42;15.60;1.00
10278;DHT22;5184;51.376;7.148;2023-05-16T13:38:09;15.70;1.00
10278;DHT22;5184;51.376;7.148;2023-05-16T13:40:35;15.90;1.00
10278;DHT22;5184;51.376;7.148;2023-05-16T13:43:02;16.30;1.00
10278;DHT22;5184;51.376;7.148;2023-05-16T13:45:29;16.20;1.00
10278;DHT22;5184;51.376;7.148;2023-05-16T13:47:55;15.90;1.00
10278;DHT22;5184;51.376;7.148;2023-05-16T13:50:23;15.30;1.00
10278;DHT22;5184;51.376;7.148;2023-05-16T13:52:50;15.30;1.00
10278;DHT22;5184;51.376;7.148;2023-05-16T13:55:17;15.20;1.00
10278;DHT22;5184;51.376;7.148;2023-05-16T13:57:44;15.20;1.00
10278;DHT22;5184;51.376;7.148;2023-05-16T14:00:11;15.00;1.00
10278;DHT22;5184;51.376;7.148;2023-05-16T14:02:39;14.90;1.00
10278;DHT22;5184;51.376;7.148;2023-05-16T14:05:05;14.90;1.00
10278;DHT22;5184;51.376;7.148;2023-05-16T14:07:32;15.10;1.00
10278;DHT22;5184;51.376;7.148;2023-05-16T14:09:58;15.20;1.00
10278;DHT22;5184;51.376;7.148;2023-05-16T14:12:25;15.50;1.00
10278;DHT22;5184;51.376;7.148;2023-05-16T14:14:51;15.60;1.00
10278;DHT22;5184;51.376;7.148;2023-05-16T14:17:19;15.20;1.00
10278;DHT22;5184;51.376;7.148;2023-05-16T14:19:46;15.20;1.00
10278;DHT22;5184;51.376;7.148;2023-05-16T14:22:14;15.20;1.00
10278;DHT22;5184;51.376;7.148;2023-05-16T14:24:41;15.10;1.00
10278;DHT22;5184;51.376;7.148;2023-05-16T14:27:08;14.90;1.00
10278;DHT22;5184;51.376;7.148;2023-05-16T14:29:36;14.70;1.00
10278;DHT22;5184;51.376;7.148;2023-05-16T14:32:03;14.60;1.00
10278;DHT22;5184;51.376;7.148;2023-05-16T14:34:30;14.60;1.00
10278;DHT22;5184;51.376;7.148;2023-05-16T14:36:56;14.50;1.00
10278;DHT22;5184;51.376;7.148;2023-05-16T14:39:23;14.50;1.00
10278;DHT22;5184;51.376;7.148;2023-05-16T14:41:50;14.40;1.00
10278;DHT22;5184;51.376;7.148;2023-05-16T14:44:17;14.30;1.00
10278;DHT22;5184;51.376;7.148;2023-05-16T14:46:44;14.20;1.00
10278;DHT22;5184;51.376;7.148;2023-05-16T14:49:12;14.20;1.00
10278;DHT22;5184;51.376;7.148;2023-05-16T14:51:39;14.30;1.00
10278;DHT22;5184;51.376;7.148;2023-05-16T14:54:06;14.40;1.00
10278;DHT22;5184;51.376;7.148;2023-05-16T14:56:34;14.50;1.00
10278;DHT22;5184;51.376;7.148;2023-05-16T14:59:01;14.50;1.00
10278;DHT22;5184;51.376;7.148;2023-05-16T15:01:28;14.70;1.00
10278;DHT22;5184;51.376;7.148;2023-05-16T15:03:54;14.80;1.00
10278;DHT22;5184;51.376;7.148;2023-05-16T15:06:21;14.80;1.00
10278;DHT22;5184;51.376;7.148;2023-05-16T15:14:05;14.20;1.00
10278;DHT22;5184;51.376;7.148;2023-05-16T15:16:31;14.10;1.00
10278;DHT22;5184;51.376;7.148;2023-05-16T15:18:58;14.00;1.00
10278;DHT22;5184;51.376;7.148;2023-05-16T15:21:24;13.90;1.00
10278;DHT22;5184;51.376;7.148;2023-05-16T15:23:51;13.70;47.50
10278;DHT22;5184;51.376;7.148;2023-05-16T15:26:17;13.60;19.40
10278;DHT22;5184;51.376;7.148;2023-05-16T15:28:44;13.60;66.50
10278;DHT22;5184;51.376;7.148;2023-05-16T15:31:11;13.80;1.00
10278;DHT22;5184;51.376;7.148;2023-05-16T15:33:39;13.90;28.40
10278;DHT22;5184;51.376;7.148;2023-05-16T15:36:06;13.90;12.60
10278;DHT22;5184;51.376;7.148;2023-05-16T15:38:33;13.90;12.50
10278;DHT22;5184;51.376;7.148;2023-05-16T15:41:00;13.80;87.00
10278;DHT22;5184;51.376;7.148;2023-05-16T15:43:27;13.80;99.90
10278;DHT22;5184;51.376;7.148;2023-05-16T15:45:54;13.80;99.90
10278;DHT22;5184;51.376;7.148;2023-05-16T15:48:21;13.70;99.90
10278;DHT22;5184;51.376;7.148;2023-05-16T15:50:47;13.60;99.90
10278;DHT22;5184;51.376;7.148;2023-05-16T15:53:14;13.50;99.90
10278;DHT22;5184;51.376;7.148;2023-05-16T15:55:40;13.50;99.90
10278;DHT22;5184;51.376;7.148;2023-05-16T15:58:08;13.60;99.90
10278;DHT22;5184;51.376;7.148;2023-05-16T16:00:35;13.60;99.90
10278;DHT22;5184;51.376;7.148;2023-05-16T16:03:02;13.60;99.90
10278;DHT22;5184;51.376;7.148;2023-05-16T16:05:28;13.60;99.90
10278;DHT22;5184;51.376;7.148;2023-05-16T16:07:55;13.60;99.90
10278;DHT22;5184;51.376;7.148;2023-05-16T16:10:21;13.70;99.90